Time;durP1;ratioP1;P1;durP2;ratioP2;P2;SDS_P1;SDS_P2;PMS_P1;PMS_P2;Temp;Humidity;BMP_temperature;BMP_pressure;BME280_temperature;BME280_humidity;BME280_pressure;Samples;Min_cycle;Max_cycle;Signal;HPM_P1;HPM_P2
2022/06/01 00:01:20;;;;;;;3.80;2.97;;;10.60;99.90;;;;;;4999175;28;20053;-79
2022/06/01 00:03:46;;;;;;;5.45;3.05;;;10.60;99.90;;;;;;4972796;28;20477;-79
2022/06/01 00:06:12;;;;;;;2.85;2.58;;;10.60;99.90;;;;;;5018453;28;20459;-78
2022/06/01 00:08:39;;;;;;;2.75;2.47;;;10.60;99.90;;;;;;4984015;28;20064;-81
2022/06/01 00:11:06;;;;;;;3.30;2.70;;;10.60;99.90;;;;;;5018286;28;20030;-79
2022/06/01 00:13:32;;;;;;;3.83;3.00;;;10.60;99.90;;;;;;4998771;28;20033;-80
2022/06/01 00:15:58;;;;;;;3.70;2.58;;;10.60;99.90;;;;;;4995110;28;20036;-81
2022/06/01 00:18:24;;;;;;;2.70;2.50;;;10.70;99.90;;;;;;5009555;28;20419;-78
2022/06/01 00:20:51;;;;;;;3.20;2.80;;;10.70;99.90;;;;;;5011503;28;20112;-79
2022/06/01 00:23:18;;;;;;;4.10;3.25;;;10.70;99.90;;;;;;5021760;28;20030;-80
2022/06/01 00:25:44;;;;;;;3.75;3.25;;;10.70;99.90;;;;;;4995838;28;20093;-80
2022/06/01 00:28:10;;;;;;;3.50;3.20;;;10.80;99.90;;;;;;5015782;28;20152;-79
2022/06/01 00:30:36;;;;;;;5.63;3.55;;;10.70;99.90;;;;;;4984903;28;20034;-79
2022/06/01 00:33:02;;;;;;;4.30;3.35;;;10.80;99.90;;;;;;5011665;28;20032;-79
2022/06/01 00:35:28;;;;;;;4.43;3.40;;;10.70;99.90;;;;;;5012233;28;20030;-79
2022/06/01 00:37:54;;;;;;;3.40;3.10;;;10.70;99.90;;;;;;5008631;28;20470;-80
2022/06/01 00:40:23;;;;;;;3.97;3.25;;;10.70;99.90;;;;;;4968732;28;20129;-79
2022/06/01 00:42:51;;;;;;;4.55;3.30;;;10.70;99.90;;;;;;5004000;28;20032;-79
2022/06/01 00:45:20;;;;;;;3.78;2.72;;;10.70;99.90;;;;;;5020158;28;20041;-81
2022/06/01 00:47:47;;;;;;;2.80;2.42;;;10.80;99.90;;;;;;4984553;28;20045;-80
2022/06/01 00:50:18;;;;;;;4.00;2.40;;;10.80;99.90;;;;;;4994578;28;20179;-81
2022/06/01 00:52:51;;;;;;;3.03;2.70;;;10.80;99.90;;;;;;4994569;28;20045;-81
2022/06/01 00:55:24;;;;;;;3.78;2.92;;;10.80;99.90;;;;;;4993121;28;20474;-80
2022/06/01 00:57:57;;;;;;;2.83;2.53;;;10.80;99.90;;;;;;4998226;28;20049;-81
2022/06/01 01:00:26;;;;;;;2.83;2.63;;;10.80;99.90;;;;;;4994951;28;20030;-79
2022/06/01 01:02:58;;;;;;;3.08;2.78;;;10.80;99.90;;;;;;4996470;28;20112;-80
2022/06/01 01:05:24;;;;;;;3.08;2.80;;;10.80;99.90;;;;;;4994338;28;20041;-80
2022/06/01 01:07:52;;;;;;;2.92;2.63;;;10.80;99.90;;;;;;5006854;28;20080;-80
2022/06/01 01:10:19;;;;;;;3.15;2.85;;;10.70;99.90;;;;;;4999815;28;20026;-80
2022/06/01 01:13:04;;;;;;;3.85;2.70;;;10.70;99.90;;;;;;4985363;28;20100;-80
2022/06/01 01:15:40;;;;;;;4.40;2.92;;;10.60;99.90;;;;;;4997773;28;20048;-80
2022/06/01 01:18:11;;;;;;;2.83;2.55;;;10.50;99.90;;;;;;5026352;28;20033;-80
2022/06/01 01:20:50;;;;;;;3.00;2.78;;;10.50;99.90;;;;;;5009896;28;20416;-80
2022/06/01 01:23:33;;;;;;;5.18;2.95;;;10.40;99.90;;;;;;5015784;28;20030;-81
2022/06/01 01:25:58;;;;;;;3.53;3.13;;;10.40;99.90;;;;;;5013485;28;20075;-80
2022/06/01 01:28:24;;;;;;;2.72;2.38;;;10.30;99.90;;;;;;4997577;28;20038;-79
2022/06/01 01:31:08;;;;;;;3.20;2.65;;;10.30;99.90;;;;;;4988949;28;20030;-81
2022/06/01 01:33:33;;;;;;;3.53;2.55;;;10.20;99.90;;;;;;4981122;28;20061;-79
2022/06/01 01:36:11;;;;;;;3.10;2.40;;;10.20;99.90;;;;;;4981318;28;20496;-80
2022/06/01 01:38:47;;;;;;;2.70;2.50;;;10.20;99.90;;;;;;4981307;28;20539;-80
2022/06/01 01:41:36;;;;;;;2.80;2.55;;;10.10;99.90;;;;;;5004532;28;20053;-80
2022/06/01 01:44:15;;;;;;;2.90;2.70;;;10.00;99.90;;;;;;4982978;28;20040;-79
2022/06/01 01:46:47;;;;;;;3.28;2.97;;;9.90;99.90;;;;;;5010725;28;20117;-80
2022/06/01 01:49:14;;;;;;;5.43;3.03;;;9.80;99.90;;;;;;4999168;28;20038;-80
2022/06/01 01:51:40;;;;;;;3.38;3.08;;;9.80;99.90;;;;;;5014144;28;20033;-80
2022/06/01 01:54:33;;;;;;;3.90;3.05;;;9.70;99.90;;;;;;4974393;28;20034;-80
2022/06/01 01:57:22;;;;;;;3.30;3.05;;;9.60;99.90;;;;;;5012743;28;20676;-80
2022/06/01 02:00:06;;;;;;;3.42;3.05;;;9.50;99.90;;;;;;4985576;28;20080;-80
2022/06/01 02:02:35;;;;;;;4.25;3.85;;;9.40;99.90;;;;;;4997389;28;20036;-79
2022/06/01 02:08:34;;;;;;;3.40;3.10;;;9.30;99.90;;;;;;4971944;28;20042;-80
2022/06/01 02:13:58;;;;;;;3.92;3.25;;;9.10;99.90;;;;;;4992257;28;20042;-82
2022/06/01 02:16:28;;;;;;;3.28;2.97;;;9.10;99.90;;;;;;4984234;28;20576;-81
2022/06/01 02:18:58;;;;;;;3.58;3.28;;;9.00;99.90;;;;;;5014579;28;20107;-83
2022/06/01 02:21:27;;;;;;;4.03;3.30;;;9.00;99.90;;;;;;5006635;28;20045;-84
2022/06/01 02:23:54;;;;;;;4.10;3.22;;;9.00;99.90;;;;;;4979619;28;20036;-81
2022/06/01 02:26:20;;;;;;;3.58;2.97;;;9.00;99.90;;;;;;5018814;28;20033;-81
2022/06/01 02:28:48;;;;;;;3.20;2.90;;;9.00;99.90;;;;;;5007663;28;20033;-82
2022/06/01 02:31:17;;;;;;;4.78;3.30;;;9.00;99.90;;;;;;4980639;28;20053;-83
2022/06/01 02:33:45;;;;;;;3.85;3.40;;;8.90;99.90;;;;;;4984495;28;20040;-81
2022/06/01 02:36:15;;;;;;;4.00;3.60;;;8.90;99.90;;;;;;5008269;28;20116;-81
2022/06/01 02:38:48;;;;;;;3.17;2.95;;;8.90;99.90;;;;;;5013166;28;20036;-82
2022/06/01 02:43:58;;;;;;;3.42;3.13;;;8.80;99.90;;;;;;5017309;28;20392;-81
2022/06/01 02:46:25;;;;;;;3.50;3.20;;;8.80;99.90;;;;;;4981659;28;20057;-81
2022/06/01 02:48:51;;;;;;;3.55;2.95;;;8.80;99.90;;;;;;4999958;28;20033;-81
2022/06/01 02:51:19;;;;;;;3.50;3.20;;;8.80;99.90;;;;;;5010126;28;20030;-81
2022/06/01 02:53:49;;;;;;;4.82;3.60;;;8.70;99.90;;;;;;4996855;28;20481;-82
2022/06/01 02:56:15;;;;;;;3.35;3.05;;;8.70;99.90;;;;;;4991847;28;20077;-81
2022/06/01 02:58:41;;;;;;;3.42;3.13;;;8.60;99.90;;;;;;5002516;28;20026;-81
2022/06/01 03:01:09;;;;;;;3.58;3.20;;;8.60;99.90;;;;;;4984443;28;20556;-81
2022/06/01 03:03:35;;;;;;;4.65;3.30;;;8.70;99.90;;;;;;4981153;28;20026;-82
2022/06/01 03:06:02;;;;;;;4.35;3.53;;;8.60;99.90;;;;;;4980419;28;20034;-81
2022/06/01 03:08:28;;;;;;;3.95;3.55;;;8.60;99.90;;;;;;5008435;28;20037;-80
2022/06/01 03:10:54;;;;;;;4.35;3.63;;;8.60;99.90;;;;;;4986033;28;20034;-82
2022/06/01 03:13:22;;;;;;;4.05;3.22;;;8.60;99.90;;;;;;4975944;28;20042;-81
2022/06/01 03:15:49;;;;;;;4.10;3.58;;;8.60;99.90;;;;;;5002851;28;20409;-80
2022/06/01 03:18:16;;;;;;;4.22;3.35;;;8.60;99.90;;;;;;4977531;28;20037;-81
2022/06/01 03:20:42;;;;;;;3.63;3.30;;;8.60;99.90;;;;;;4966541;28;20032;-82
2022/06/01 03:23:07;;;;;;;3.88;3.45;;;8.60;99.90;;;;;;4960423;28;20039;-82
2022/06/01 03:25:34;;;;;;;4.70;3.90;;;8.60;99.90;;;;;;4971350;28;20033;-81
2022/06/01 03:28:00;;;;;;;4.30;3.90;;;8.60;99.90;;;;;;4973700;28;20038;-83
2022/06/01 03:30:27;;;;;;;5.63;4.57;;;8.60;99.90;;;;;;4989733;28;20118;-81
2022/06/01 03:32:53;;;;;;;4.30;3.90;;;8.60;99.90;;;;;;4995387;28;20033;-81
2022/06/01 03:35:22;;;;;;;5.88;4.30;;;8.60;99.90;;;;;;4977685;28;20053;-81
2022/06/01 03:37:48;;;;;;;4.90;4.30;;;8.60;99.90;;;;;;4964000;28;20136;-81
2022/06/01 03:40:16;;;;;;;6.13;4.28;;;8.60;99.90;;;;;;4995394;28;20060;-81
2022/06/01 03:42:41;;;;;;;4.68;4.20;;;8.60;99.90;;;;;;4984528;28;20037;-81
2022/06/01 03:47:55;;;;;;;6.63;4.18;;;8.60;99.90;;;;;;4997860;28;20044;-82
2022/06/01 03:50:23;;;;;;;5.63;4.45;;;8.60;99.90;;;;;;5020262;28;20038;-81
2022/06/01 03:52:50;;;;;;;5.10;4.25;;;8.60;99.90;;;;;;4984552;28;20038;-81
2022/06/01 03:55:16;;;;;;;6.07;4.32;;;8.60;99.90;;;;;;4992287;28;20033;-83
2022/06/01 03:57:43;;;;;;;5.18;4.32;;;8.60;99.90;;;;;;5017942;28;20029;-84
2022/06/01 04:00:13;;;;;;;7.85;5.18;;;8.60;99.90;;;;;;5011095;28;20030;-82
2022/06/01 04:02:40;;;;;;;6.22;4.32;;;8.70;99.90;;;;;;4990479;28;20397;-82
2022/06/01 04:05:07;;;;;;;5.32;4.85;;;8.80;99.90;;;;;;5004765;28;20038;-83
2022/06/01 04:07:35;;;;;;;5.55;4.43;;;8.80;99.90;;;;;;4967260;28;20038;-84
2022/06/01 04:10:02;;;;;;;5.13;4.53;;;8.90;99.90;;;;;;4981583;28;20040;-82
2022/06/01 04:12:28;;;;;;;5.07;4.57;;;8.90;99.90;;;;;;5007744;28;20073;-83
2022/06/01 04:14:57;;;;;;;6.13;4.80;;;8.90;99.90;;;;;;5007271;28;20064;-83
2022/06/01 04:17:22;;;;;;;5.60;4.72;;;9.00;99.90;;;;;;4998872;28;20120;-82
2022/06/01 04:19:48;;;;;;;5.25;4.72;;;9.00;99.90;;;;;;4986929;28;20138;-85
2022/06/01 04:22:15;;;;;;;7.80;4.50;;;9.10;99.90;;;;;;4964906;28;20044;-85
2022/06/01 04:24:41;;;;;;;5.90;4.75;;;9.10;99.90;;;;;;4980334;28;20112;-84
2022/06/01 04:27:07;;;;;;;6.78;4.75;;;9.10;99.90;;;;;;5001627;28;20029;-85
2022/06/01 04:29:33;;;;;;;5.45;4.90;;;9.20;99.90;;;;;;5007051;28;20100;-85
2022/06/01 04:32:03;;;;;;;6.18;4.47;;;9.20;99.90;;;;;;4994801;28;20068;-84
2022/06/01 04:34:29;;;;;;;5.07;4.53;;;9.20;99.90;;;;;;4996832;28;20042;-84
2022/06/01 04:36:55;;;;;;;4.60;4.20;;;9.30;99.90;;;;;;4982011;28;20031;-85
2022/06/01 04:39:24;;;;;;;5.72;4.50;;;9.40;99.90;;;;;;4999479;28;20084;-85
2022/06/01 04:41:50;;;;;;;12.77;8.38;;;9.50;99.90;;;;;;5012867;28;20097;-84
2022/06/01 04:44:16;;;;;;;16.45;10.57;;;9.50;99.90;;;;;;4980990;28;20057;-84
2022/06/01 04:46:42;;;;;;;5.93;5.32;;;9.60;99.90;;;;;;5011727;28;20098;-84
2022/06/01 04:49:08;;;;;;;6.57;5.05;;;9.60;99.90;;;;;;5018393;28;21009;-83
2022/06/01 04:51:35;;;;;;;5.32;4.72;;;9.70;99.90;;;;;;5004052;28;20394;-85
2022/06/01 04:54:01;;;;;;;5.90;5.00;;;9.80;99.90;;;;;;5011600;28;20112;-83
2022/06/01 04:56:27;;;;;;;7.65;5.20;;;9.80;99.90;;;;;;5000026;28;20500;-83
2022/06/01 04:58:52;;;;;;;5.20;4.53;;;9.90;99.90;;;;;;4997402;28;20034;-83
2022/06/01 05:01:18;;;;;;;6.15;5.18;;;10.00;99.90;;;;;;4989842;28;20048;-84
2022/06/01 05:03:44;;;;;;;5.72;5.20;;;10.10;99.90;;;;;;5013402;28;20166;-84
2022/06/01 05:06:10;;;;;;;7.32;6.05;;;10.20;99.90;;;;;;4980041;28;20169;-85
2022/06/01 05:08:36;;;;;;;7.47;5.35;;;10.30;99.90;;;;;;4997880;28;20034;-84
2022/06/01 05:11:02;;;;;;;6.18;5.10;;;10.40;99.90;;;;;;5019587;28;20026;-84
2022/06/01 05:13:28;;;;;;;6.60;5.15;;;10.40;99.90;;;;;;5010799;28;20030;-83
2022/06/01 05:15:57;;;;;;;6.22;5.60;;;10.50;99.90;;;;;;4965320;28;20109;-84
2022/06/01 05:18:24;;;;;;;6.53;5.80;;;10.50;99.90;;;;;;5004009;28;20440;-83
2022/06/01 05:20:50;;;;;;;6.93;5.20;;;10.60;99.90;;;;;;4977519;28;20489;-84
2022/06/01 05:23:17;;;;;;;7.43;5.72;;;10.70;99.90;;;;;;4979460;28;20040;-83
2022/06/01 05:25:45;;;;;;;5.53;4.97;;;10.90;99.90;;;;;;5001417;28;20060;-83
2022/06/01 05:28:12;;;;;;;5.15;4.65;;;11.10;99.90;;;;;;5012992;28;20125;-84
2022/06/01 05:30:38;;;;;;;5.28;4.78;;;11.30;99.90;;;;;;5014187;28;20029;-84
2022/06/01 05:33:04;;;;;;;4.72;4.32;;;11.60;99.90;;;;;;4995265;28;20505;-85
2022/06/01 05:35:30;;;;;;;5.10;4.57;;;11.90;99.90;;;;;;5015300;28;20026;-84
2022/06/01 05:37:56;;;;;;;7.68;4.50;;;12.20;99.90;;;;;;4979034;28;20503;-82
2022/06/01 05:40:22;;;;;;;5.10;4.22;;;12.60;99.90;;;;;;4999278;28;20041;-83
2022/06/01 05:42:48;;;;;;;5.57;4.25;;;13.00;99.90;;;;;;4999148;28;20029;-83
2022/06/01 05:45:14;;;;;;;4.82;3.92;;;13.50;99.90;;;;;;4980500;28;20049;-83
2022/06/01 05:47:39;;;;;;;4.32;3.88;;;13.80;99.90;;;;;;4994991;28;20041;-83
2022/06/01 05:50:06;;;;;;;4.70;3.88;;;14.20;99.90;;;;;;4975615;28;20045;-83
2022/06/01 05:52:32;;;;;;;4.43;4.03;;;14.50;99.90;;;;;;5000874;28;20498;-83
2022/06/01 05:54:57;;;;;;;5.10;3.78;;;14.90;99.90;;;;;;5010121;28;20034;-83
2022/06/01 05:57:23;;;;;;;2.95;2.75;;;15.00;99.90;;;;;;4988876;28;20037;-83
2022/06/01 05:59:49;;;;;;;4.35;3.72;;;15.50;99.90;;;;;;4980711;28;20062;-84
2022/06/01 06:02:15;;;;;;;4.28;3.88;;;16.00;99.90;;;;;;4995746;28;20045;-83
2022/06/01 06:04:41;;;;;;;4.10;3.70;;;16.40;99.90;;;;;;5013512;28;20034;-82
2022/06/01 06:07:06;;;;;;;3.60;3.17;;;16.70;99.90;;;;;;5012075;28;20029;-82
2022/06/01 06:09:32;;;;;;;3.38;3.08;;;17.00;99.90;;;;;;5008919;28;20033;-84
2022/06/01 06:11:58;;;;;;;6.75;3.50;;;17.40;99.90;;;;;;5020946;28;20022;-83
2022/06/01 06:14:24;;;;;;;3.58;2.97;;;17.10;99.90;;;;;;4979954;28;20033;-83
2022/06/01 06:16:49;;;;;;;2.92;2.72;;;17.20;99.90;;;;;;5015586;28;20486;-82
2022/06/01 06:19:17;;;;;;;3.80;3.47;;;17.50;99.90;;;;;;4988325;28;20037;-82
2022/06/01 06:21:44;;;;;;;3.70;3.40;;;17.70;99.90;;;;;;4983118;28;20108;-83
2022/06/01 06:24:16;;;;;;;3.35;3.05;;;18.00;99.90;;;;;;5010999;28;20435;-82
2022/06/01 06:26:42;;;;;;;3.42;3.03;;;18.30;99.90;;;;;;4967540;28;20041;-82
2022/06/01 06:29:10;;;;;;;4.30;2.58;;;18.70;99.90;;;;;;4993931;28;20042;-82
2022/06/01 06:31:37;;;;;;;3.70;3.40;;;18.70;99.90;;;;;;5010033;28;20038;-82
2022/06/01 06:34:04;;;;;;;4.18;3.22;;;18.70;99.90;;;;;;5004035;28;20064;-82
2022/06/01 06:36:30;;;;;;;2.97;2.67;;;18.50;99.90;;;;;;5018621;28;20025;-83
2022/06/01 06:38:56;;;;;;;6.82;3.05;;;18.60;99.90;;;;;;5002684;28;20034;-82
2022/06/01 06:41:22;;;;;;;3.25;2.95;;;18.70;99.90;;;;;;5009853;28;20033;-83
2022/06/01 06:43:48;;;;;;;2.92;2.63;;;18.90;99.90;;;;;;4979147;28;20526;-83
2022/06/01 06:46:17;;;;;;;2.55;2.35;;;19.10;99.90;;;;;;4993977;28;20029;-83
2022/06/01 06:48:44;;;;;;;2.58;2.38;;;19.30;99.90;;;;;;4983337;28;20042;-83
2022/06/01 06:51:12;;;;;;;2.60;2.40;;;19.60;99.90;;;;;;5012352;28;20036;-82
2022/06/01 06:53:38;;;;;;;1.83;1.73;;;20.20;99.90;;;;;;5006535;28;20022;-82
2022/06/01 06:56:04;;;;;;;2.53;1.85;;;20.50;98.10;;;;;;4992259;28;20487;-82
2022/06/01 06:58:32;;;;;;;2.60;1.58;;;20.70;98.30;;;;;;5012488;28;20130;-82
2022/06/01 07:00:58;;;;;;;4.63;1.58;;;20.70;97.20;;;;;;4994160;28;20068;-82
2022/06/01 07:03:23;;;;;;;2.30;1.50;;;20.60;95.40;;;;;;5011445;28;20062;-81
2022/06/01 07:08:33;;;;;;;1.50;1.40;;;20.00;93.30;;;;;;5000557;28;20049;-82
2022/06/01 07:11:00;;;;;;;1.42;1.30;;;19.80;96.00;;;;;;5018108;28;20030;-82
2022/06/01 07:13:27;;;;;;;1.75;1.45;;;19.70;96.40;;;;;;5013452;28;20034;-82
2022/06/01 07:16:04;;;;;;;3.75;1.50;;;19.60;95.80;;;;;;5011038;28;20034;-82
2022/06/01 07:18:29;;;;;;;1.50;1.40;;;19.50;96.00;;;;;;5002427;28;20298;-82
2022/06/01 07:20:55;;;;;;;1.25;1.23;;;19.80;97.20;;;;;;5011880;28;20557;-82
2022/06/01 07:23:21;;;;;;;2.38;1.48;;;20.20;96.00;;;;;;4982867;28;20046;-83
2022/06/01 07:25:46;;;;;;;3.13;2.15;;;20.60;92.50;;;;;;4995822;28;20460;-84
2022/06/01 07:28:12;;;;;;;1.55;1.40;;;20.90;93.00;;;;;;5014969;28;20544;-83
2022/06/01 07:30:39;;;;;;;1.60;1.40;;;21.00;92.60;;;;;;5016670;28;20026;-82
2022/06/01 07:33:05;;;;;;;1.92;1.23;;;20.80;93.00;;;;;;5005994;28;20061;-83
2022/06/01 07:35:30;;;;;;;2.40;1.63;;;20.60;93.20;;;;;;5019192;28;20488;-81
2022/06/01 07:43:24;;;;;;;2.70;1.40;;;19.40;94.00;;;;;;4995700;28;20555;-82
2022/06/01 07:45:50;;;;;;;2.13;1.33;;;19.00;94.40;;;;;;4991616;28;20034;-82
2022/06/01 07:48:17;;;;;;;2.92;1.52;;;18.70;95.50;;;;;;5012000;28;20033;-79
2022/06/01 07:50:43;;;;;;;1.60;1.50;;;18.80;95.50;;;;;;4990489;28;20026;-81
2022/06/01 07:53:10;;;;;;;1.67;1.30;;;19.20;96.80;;;;;;4988266;28;20053;-82
2022/06/01 07:55:37;;;;;;;3.83;1.42;;;19.70;94.20;;;;;;4987097;28;20042;-82
2022/06/01 07:58:03;;;;;;;1.70;1.23;;;20.20;91.20;;;;;;4976409;28;20550;-82
2022/06/01 08:00:30;;;;;;;1.80;1.10;;;20.70;90.90;;;;;;4989746;28;20038;-82
2022/06/01 08:02:56;;;;;;;1.30;1.20;;;21.00;91.50;;;;;;5020323;28;20029;-81
2022/06/01 08:05:22;;;;;;;3.90;1.20;;;21.20;91.60;;;;;;5014272;28;20396;-83
2022/06/01 08:07:48;;;;;;;1.25;1.15;;;21.40;91.40;;;;;;5003349;28;20492;-82
2022/06/01 08:10:17;;;;;;;1.33;1.05;;;21.50;86.60;;;;;;5007981;28;20038;-81
2022/06/01 08:15:27;;;;;;;2.05;1.20;;;21.60;87.10;;;;;;4988600;28;20120;-82
2022/06/01 08:17:57;;;;;;;2.85;1.45;;;21.70;80.80;;;;;;5004892;28;20129;-81
2022/06/01 08:20:24;;;;;;;1.30;1.20;;;21.70;79.50;;;;;;4988005;28;20034;-81
2022/06/01 08:22:51;;;;;;;1.33;1.23;;;21.80;81.50;;;;;;4996721;28;20030;-82
2022/06/01 08:25:17;;;;;;;1.30;1.20;;;21.70;75.60;;;;;;4988177;28;20025;-80
2022/06/01 08:27:45;;;;;;;2.20;0.98;;;21.70;81.70;;;;;;4989482;28;20083;-81
2022/06/01 08:30:12;;;;;;;1.30;1.20;;;21.70;71.60;;;;;;5007655;28;20187;-80
2022/06/01 08:32:37;;;;;;;1.13;1.02;;;21.70;77.40;;;;;;5008051;28;20037;-81
2022/06/01 08:35:05;;;;;;;2.58;1.08;;;21.60;73.00;;;;;;4987006;28;20030;-81
2022/06/01 08:37:31;;;;;;;0.95;0.80;;;21.50;69.90;;;;;;5006831;28;20116;-81
2022/06/01 08:39:57;;;;;;;1.25;0.93;;;21.40;66.80;;;;;;4970721;28;20105;-82
2022/06/01 08:42:24;;;;;;;1.52;0.90;;;21.30;71.00;;;;;;4969787;28;20038;-82
2022/06/01 08:44:51;;;;;;;1.80;0.95;;;21.30;69.20;;;;;;4976929;28;20106;-80
2022/06/01 08:47:31;;;;;;;1.40;1.00;;;21.10;69.40;;;;;;4993134;28;20041;-82
2022/06/01 08:50:00;;;;;;;0.80;0.80;;;20.90;70.50;;;;;;5005845;28;20033;-82
2022/06/01 08:52:30;;;;;;;1.70;0.98;;;20.80;69.80;;;;;;4991780;28;20033;-82
2022/06/01 08:54:56;;;;;;;2.10;0.95;;;20.90;75.00;;;;;;4976922;28;20030;-81
2022/06/01 08:57:39;;;;;;;1.20;1.10;;;21.00;75.30;;;;;;4998765;28;20043;-81
2022/06/01 09:00:14;;;;;;;1.42;0.90;;;21.40;68.00;;;;;;5003571;28;20098;-81
2022/06/01 09:03:13;;;;;;;1.17;1.02;;;21.60;69.10;;;;;;4992369;28;20138;-82
2022/06/01 09:05:48;;;;;;;3.03;0.80;;;21.90;69.70;;;;;;4995492;28;20026;-83
2022/06/01 09:08:35;;;;;;;1.65;0.88;;;22.10;59.00;;;;;;5013917;28;20026;-83
2022/06/01 09:11:06;;;;;;;2.60;0.82;;;22.20;63.30;;;;;;5012148;28;20041;-82
2022/06/01 09:13:52;;;;;;;1.50;0.60;;;22.10;65.00;;;;;;5011711;28;20034;-83
2022/06/01 09:16:23;;;;;;;1.15;0.77;;;22.00;58.30;;;;;;5002816;28;20030;-83
2022/06/01 09:18:54;;;;;;;2.10;0.80;;;21.90;60.60;;;;;;5022604;28;20034;-82
2022/06/01 09:24:12;;;;;;;1.55;1.10;;;21.50;58.30;;;;;;5008446;28;20132;-82
2022/06/01 09:26:54;;;;;;;2.88;0.93;;;21.50;61.50;;;;;;5018391;28;20037;-82
2022/06/01 09:29:23;;;;;;;5.65;0.95;;;21.50;60.80;;;;;;4997579;28;20496;-82
2022/06/01 09:31:54;;;;;;;0.63;0.63;;;21.50;63.10;;;;;;5002067;28;20098;-82
2022/06/01 09:34:36;;;;;;;0.65;0.65;;;21.60;63.30;;;;;;5007049;28;20037;-81
2022/06/01 09:37:24;;;;;;;1.15;0.52;;;21.60;60.90;;;;;;5014835;28;20041;-81
2022/06/01 09:39:58;;;;;;;1.25;0.73;;;21.50;57.70;;;;;;4972450;28;20044;-81
2022/06/01 09:42:25;;;;;;;1.45;0.68;;;21.60;58.10;;;;;;4983404;28;20506;-82
2022/06/01 09:44:54;;;;;;;2.20;1.02;;;21.50;58.00;;;;;;4997063;28;20053;-81
2022/06/01 09:47:35;;;;;;;1.08;1.02;;;21.60;59.50;;;;;;4954229;28;20088;-81
2022/06/01 09:50:03;;;;;;;1.83;1.35;;;21.50;61.60;;;;;;5028099;28;20038;-81
2022/06/01 09:52:40;;;;;;;2.10;1.30;;;21.50;62.30;;;;;;4978824;28;20038;-82
2022/06/01 09:55:25;;;;;;;1.27;1.10;;;21.40;60.10;;;;;;5001462;28;20034;-82
2022/06/01 09:58:08;;;;;;;2.72;1.00;;;21.30;62.70;;;;;;5012540;28;20057;-83
2022/06/01 10:06:30;;;;;;;0.85;0.80;;;21.40;60.00;;;;;;5005126;28;20044;-82
2022/06/01 10:09:11;;;;;;;1.58;0.90;;;21.50;59.30;;;;;;5016068;28;20108;-81
2022/06/01 10:11:44;;;;;;;2.33;0.88;;;21.80;60.50;;;;;;4992365;28;20034;-82
2022/06/01 10:14:24;;;;;;;2.20;0.98;;;22.00;58.40;;;;;;4989078;28;20704;-82
2022/06/01 10:17:05;;;;;;;3.03;0.80;;;22.10;57.30;;;;;;4971131;28;20080;-82
2022/06/01 10:19:35;;;;;;;1.15;0.98;;;22.00;57.00;;;;;;5009369;28;20102;-82
2022/06/01 10:22:16;;;;;;;1.55;0.95;;;21.80;58.70;;;;;;5008152;28;20132;-82
2022/06/01 10:24:56;;;;;;;1.33;1.10;;;21.80;56.40;;;;;;5010726;28;20033;-82
2022/06/01 10:27:29;;;;;;;1.67;0.80;;;21.70;56.60;;;;;;5013778;28;20412;-81
2022/06/01 10:30:22;;;;;;;3.25;0.65;;;21.70;57.80;;;;;;5015226;28;20087;-82
2022/06/01 10:32:56;;;;;;;1.00;0.80;;;21.60;58.20;;;;;;4978996;28;20070;-80
2022/06/01 10:35:44;;;;;;;0.70;0.70;;;21.60;59.30;;;;;;5002665;28;20038;-82
2022/06/01 10:38:32;;;;;;;2.45;1.00;;;21.60;58.50;;;;;;5023626;28;20031;-82
2022/06/01 10:41:27;;;;;;;1.13;1.02;;;21.80;58.90;;;;;;5020693;28;20076;-83
2022/06/01 10:44:11;;;;;;;1.40;1.00;;;21.90;59.00;;;;;;5012823;28;20703;-83
2022/06/01 10:46:47;;;;;;;3.25;0.80;;;22.00;56.00;;;;;;5011211;28;20113;-81
2022/06/01 10:49:17;;;;;;;1.60;0.80;;;22.10;56.80;;;;;;5015262;28;20499;-82
2022/06/01 10:51:47;;;;;;;1.25;1.15;;;22.10;56.30;;;;;;5001270;28;20101;-83
2022/06/01 10:54:16;;;;;;;1.02;0.82;;;22.10;58.10;;;;;;4990338;28;20034;-81
2022/06/01 10:56:42;;;;;;;1.50;0.80;;;21.90;55.00;;;;;;4998417;28;20033;-82
2022/06/01 10:59:12;;;;;;;0.75;0.60;;;21.80;58.00;;;;;;5007860;28;20039;-82
2022/06/01 11:01:56;;;;;;;0.73;0.60;;;21.70;56.90;;;;;;4982728;28;20112;-82
2022/06/01 11:04:39;;;;;;;1.15;0.82;;;21.70;58.30;;;;;;4990719;28;20033;-82
2022/06/01 11:07:22;;;;;;;2.10;0.75;;;21.70;57.10;;;;;;5012240;28;20096;-81
2022/06/01 11:10:27;;;;;;;0.88;0.77;;;21.60;57.30;;;;;;5018314;28;20029;-82
2022/06/01 11:12:55;;;;;;;0.70;0.70;;;21.70;57.00;;;;;;4998795;28;20046;-82
2022/06/01 11:15:25;;;;;;;0.85;0.85;;;21.70;55.40;;;;;;5006750;28;20042;-83
2022/06/01 11:18:02;;;;;;;1.10;1.00;;;21.80;58.30;;;;;;5026529;28;20075;-82
2022/06/01 11:20:59;;;;;;;1.10;1.00;;;21.70;59.80;;;;;;5003026;28;21642;-82
2022/06/01 11:23:48;;;;;;;2.53;1.08;;;21.60;57.90;;;;;;5032427;28;20038;-83
2022/06/01 11:26:37;;;;;;;1.05;1.00;;;21.30;56.20;;;;;;5017912;28;20022;-82
2022/06/01 11:29:41;;;;;;;2.72;0.80;;;21.20;58.30;;;;;;4961017;28;20038;-82
2022/06/01 11:32:14;;;;;;;2.38;0.60;;;21.30;58.20;;;;;;5012570;28;20049;-81
2022/06/01 11:34:52;;;;;;;0.90;0.80;;;21.40;61.10;;;;;;5008696;28;20065;-83
2022/06/01 11:37:27;;;;;;;1.23;0.70;;;21.70;59.10;;;;;;4999259;28;20022;-84
2022/06/01 11:40:04;;;;;;;2.57;0.87;;;22.00;57.90;;;;;;5020974;28;20087;-83
2022/06/01 11:42:40;;;;;;;1.90;0.80;;;22.30;57.90;;;;;;5011221;28;20084;-83
2022/06/01 11:45:38;;;;;;;1.60;0.90;;;22.70;57.20;;;;;;5015523;28;20026;-82
2022/06/01 11:48:08;;;;;;;2.05;0.75;;;22.80;56.10;;;;;;5022282;28;20367;-84
2022/06/01 11:50:48;;;;;;;1.60;0.80;;;22.80;56.30;;;;;;5010329;28;20038;-82
2022/06/01 11:53:43;;;;;;;0.88;0.88;;;23.00;57.00;;;;;;5002192;28;20026;-81
2022/06/01 11:56:30;;;;;;;1.70;0.80;;;23.20;53.30;;;;;;4959225;28;20513;-83
2022/06/01 11:59:07;;;;;;;0.70;0.60;;;23.40;55.10;;;;;;5004817;28;20073;-83
2022/06/01 12:01:44;;;;;;;0.82;0.80;;;23.40;53.50;;;;;;5008128;28;20038;-83
2022/06/01 12:04:36;;;;;;;1.55;0.80;;;23.50;50.50;;;;;;5005147;28;20072;-81
2022/06/01 12:07:08;;;;;;;0.70;0.70;;;23.30;52.20;;;;;;4972895;28;20519;-82
2022/06/01 12:10:14;;;;;;;1.15;0.70;;;23.00;52.90;;;;;;5002151;28;20114;-81
2022/06/01 12:12:39;;;;;;;1.65;0.70;;;22.80;50.90;;;;;;4959471;28;20038;-81
2022/06/01 12:15:16;;;;;;;0.95;0.77;;;22.80;54.30;;;;;;5018896;28;20040;-80
2022/06/01 12:18:07;;;;;;;1.27;0.75;;;23.00;56.50;;;;;;5013341;28;20036;-79
2022/06/01 12:20:33;;;;;;;0.80;0.57;;;23.30;56.30;;;;;;5014251;28;20584;-79
2022/06/01 12:28:51;;;;;;;0.73;0.70;;;24.50;52.00;;;;;;5008890;28;20029;-78
2022/06/01 12:31:36;;;;;;;2.37;0.70;;;24.80;50.30;;;;;;4997102;28;20088;-81
2022/06/01 12:34:06;;;;;;;1.60;0.70;;;25.10;49.70;;;;;;5009230;28;20040;-81
2022/06/01 12:36:37;;;;;;;1.58;0.60;;;25.40;47.20;;;;;;5011708;28;20161;-79
2022/06/01 12:39:32;;;;;;;0.52;0.52;;;25.70;47.90;;;;;;5017106;28;20034;-81
2022/06/01 12:42:26;;;;;;;1.20;0.70;;;25.70;44.40;;;;;;4979209;28;20046;-82
2022/06/01 12:44:55;;;;;;;1.15;1.02;;;25.50;46.30;;;;;;5012405;28;20113;-81
2022/06/01 12:47:27;;;;;;;2.28;0.68;;;25.60;45.70;;;;;;4980538;28;20496;-81
2022/06/01 12:49:53;;;;;;;1.35;0.70;;;25.70;47.60;;;;;;5016731;28;20086;-81
2022/06/01 12:52:26;;;;;;;0.65;0.60;;;25.80;45.30;;;;;;4960994;28;20033;-82
2022/06/01 12:54:53;;;;;;;1.33;0.82;;;25.80;45.10;;;;;;5010572;28;20485;-81
2022/06/01 12:57:31;;;;;;;0.70;0.70;;;25.80;44.40;;;;;;5014109;28;20022;-81
2022/06/01 13:00:00;;;;;;;2.88;0.47;;;25.70;46.70;;;;;;5010595;28;20030;-81
2022/06/01 13:02:29;;;;;;;0.50;0.50;;;25.90;47.30;;;;;;5009787;28;20040;-81
2022/06/01 13:04:56;;;;;;;0.68;0.68;;;26.20;44.00;;;;;;5004649;28;20029;-82
2022/06/01 13:07:37;;;;;;;1.80;0.57;;;26.20;43.70;;;;;;5007647;28;20038;-82
2022/06/01 13:10:17;;;;;;;3.95;0.43;;;26.30;45.50;;;;;;5014779;28;20489;-82
2022/06/01 13:12:46;;;;;;;1.42;0.70;;;26.30;45.70;;;;;;4997192;28;20034;-82
2022/06/01 13:15:25;;;;;;;0.57;0.57;;;26.00;42.40;;;;;;5018902;28;20529;-82
2022/06/01 13:17:54;;;;;;;0.73;0.52;;;25.60;45.80;;;;;;5012292;28;20038;-82
2022/06/01 13:20:55;;;;;;;0.60;0.60;;;25.40;45.50;;;;;;5013614;28;20077;-81
2022/06/01 13:23:32;;;;;;;0.68;0.63;;;25.30;47.50;;;;;;4955843;28;20046;-81
2022/06/01 13:26:03;;;;;;;1.42;0.90;;;25.30;47.60;;;;;;4994201;28;20032;-81
2022/06/01 13:28:28;;;;;;;0.80;0.60;;;25.40;49.20;;;;;;5015847;28;20554;-81
2022/06/01 13:30:56;;;;;;;0.77;0.65;;;25.50;47.30;;;;;;4976464;28;20038;-80
2022/06/01 13:33:30;;;;;;;2.15;0.50;;;25.70;44.00;;;;;;5013940;28;20125;-79
2022/06/01 13:36:02;;;;;;;0.60;0.60;;;25.70;44.60;;;;;;5001476;28;20084;-79
2022/06/01 13:38:44;;;;;;;1.35;0.63;;;25.60;46.60;;;;;;5011308;28;20285;-80
2022/06/01 13:41:51;;;;;;;0.50;0.50;;;25.50;42.00;;;;;;4986293;28;20039;-80
2022/06/01 13:44:45;;;;;;;0.70;0.50;;;25.30;43.20;;;;;;4997294;28;20799;-80
2022/06/01 13:47:12;;;;;;;0.50;0.50;;;25.10;43.10;;;;;;4997541;28;20052;-79